createdAt,value
2022-11-29T00:01:41.160Z,15.48
2022-11-29T00:04:09.494Z,13.82
2022-11-29T00:06:40.030Z,11.20
2022-11-29T00:09:11.605Z,13.70
2022-11-29T00:11:58.619Z,14.68
2022-11-29T00:14:28.125Z,13.03
2022-11-29T00:16:59.304Z,13.98
2022-11-29T00:19:27.748Z,13.50
2022-11-29T00:21:57.513Z,14.90
2022-11-29T00:24:25.843Z,14.70
2022-11-29T00:26:54.016Z,12.02
2022-11-29T00:29:22.394Z,12.98
2022-11-29T00:31:50.586Z,14.20
2022-11-29T00:34:18.845Z,11.80
2022-11-29T00:36:47.064Z,14.27
2022-11-29T00:39:16.667Z,11.05
2022-11-29T00:41:44.996Z,10.75
2022-11-29T00:44:19.691Z,12.10
2022-11-29T00:46:48.938Z,13.90
2022-11-29T00:49:17.267Z,12.77
2022-11-29T00:51:45.489Z,11.30
2022-11-29T00:54:13.760Z,12.80
2022-11-29T00:56:43.920Z,12.20
2022-11-29T00:59:12.192Z,13.57
2022-11-29T01:01:40.446Z,9.80
2022-11-29T01:04:08.724Z,12.97
2022-11-29T01:06:37.253Z,11.63
2022-11-29T01:09:05.896Z,14.00
2022-11-29T01:11:34.273Z,11.82
2022-11-29T01:14:05.143Z,12.68
2022-11-29T01:16:33.797Z,13.45
2022-11-29T01:19:02.606Z,11.85
2022-11-29T01:21:31.602Z,13.83
2022-11-29T01:24:01.609Z,12.95
2022-11-29T01:26:31.594Z,14.77
2022-11-29T01:29:01.164Z,13.95
2022-11-29T01:31:33.172Z,14.27
2022-11-29T01:34:04.163Z,14.52
2022-11-29T01:36:32.582Z,15.68
2022-11-29T01:39:01.793Z,13.98
2022-11-29T01:41:32.413Z,14.23
2022-11-29T01:44:07.007Z,13.70
2022-11-29T01:46:39.228Z,14.18
2022-11-29T01:49:12.671Z,12.63
2022-11-29T01:51:43.955Z,13.50
2022-11-29T01:54:13.591Z,12.73
2022-11-29T01:56:42.784Z,17.13
2022-11-29T01:59:15.544Z,14.90
2022-11-29T02:01:45.223Z,16.42
2022-11-29T02:04:13.827Z,14.57
2022-11-29T02:06:43.663Z,14.80
2022-11-29T02:09:20.235Z,14.48
2022-11-29T02:12:10.075Z,15.05
2022-11-29T02:15:05.438Z,16.83
2022-11-29T02:17:45.456Z,16.08
2022-11-29T02:21:05.640Z,14.60
2022-11-29T02:24:19.863Z,12.93
2022-11-29T02:27:13.113Z,14.30
2022-11-29T02:30:14.318Z,13.75
2022-11-29T02:33:39.847Z,14.10
2022-11-29T02:36:26.487Z,13.98
2022-11-29T02:39:24.534Z,13.13
2022-11-29T02:42:23.388Z,12.23
2022-11-29T02:45:02.856Z,15.43
2022-11-29T02:47:47.487Z,13.10
2022-11-29T02:50:25.476Z,14.18
2022-11-29T02:53:05.026Z,18.10
2022-11-29T02:55:40.584Z,16.13
2022-11-29T02:58:18.064Z,15.63
2022-11-29T03:00:54.520Z,12.93
2022-11-29T03:03:27.151Z,14.85
2022-11-29T03:06:05.729Z,17.30
2022-11-29T03:08:41.029Z,15.52
2022-11-29T03:11:19.590Z,19.77
2022-11-29T03:13:56.956Z,24.40
2022-11-29T03:16:43.892Z,23.23
2022-11-29T03:19:37.893Z,19.42
2022-11-29T03:22:13.175Z,21.03
2022-11-29T03:24:52.074Z,21.00
2022-11-29T03:27:25.842Z,25.63
2022-11-29T03:30:00.626Z,23.83
2022-11-29T03:32:34.200Z,23.98
2022-11-29T03:35:08.792Z,21.15
2022-11-29T03:37:47.886Z,27.57
2022-11-29T03:40:22.339Z,26.33
2022-11-29T03:42:56.021Z,26.43
2022-11-29T03:45:30.123Z,28.23
2022-11-29T03:48:04.972Z,24.50
2022-11-29T03:50:38.827Z,24.02
2022-11-29T03:53:15.879Z,24.63
2022-11-29T03:55:55.146Z,25.67
2022-11-29T03:58:41.855Z,26.35
2022-11-29T04:01:53.724Z,22.48
2022-11-29T04:04:44.757Z,27.30
2022-11-29T04:07:26.919Z,25.65
2022-11-29T04:10:12.886Z,26.75
2022-11-29T04:13:10.630Z,21.70
2022-11-29T04:16:14.282Z,28.33
2022-11-29T04:19:02.425Z,25.02
2022-11-29T04:21:46.675Z,31.08
2022-11-29T04:24:47.478Z,21.25
2022-11-29T04:27:38.445Z,27.60
2022-11-29T04:30:18.385Z,21.95
2022-11-29T04:33:24.123Z,26.15
2022-11-29T04:36:10.253Z,20.85
2022-11-29T04:38:55.359Z,25.17
2022-11-29T04:41:45.263Z,19.10
2022-11-29T04:44:28.870Z,24.10
2022-11-29T04:47:29.822Z,23.80
2022-11-29T04:50:28.315Z,20.48
2022-11-29T04:53:22.860Z,29.15
2022-11-29T04:55:58.973Z,21.60
2022-11-29T04:58:35.845Z,25.55
2022-11-29T05:01:13.491Z,24.58
2022-11-29T05:03:52.469Z,22.52
2022-11-29T05:06:30.583Z,21.40
2022-11-29T05:09:06.505Z,24.63
2022-11-29T05:11:47.295Z,20.98
2022-11-29T05:14:29.586Z,25.02
2022-11-29T05:17:09.721Z,21.40
2022-11-29T05:19:56.087Z,20.23
2022-11-29T05:22:33.151Z,22.83
2022-11-29T05:25:20.132Z,22.73
2022-11-29T05:27:53.579Z,20.10
2022-11-29T05:30:23.709Z,19.50
2022-11-29T05:32:58.573Z,26.35
2022-11-29T05:35:53.699Z,26.55
2022-11-29T05:38:46.005Z,21.48
2022-11-29T05:41:26.883Z,23.23
2022-11-29T05:44:08.557Z,22.17
2022-11-29T05:46:47.135Z,22.13
2022-11-29T05:49:24.314Z,19.50
2022-11-29T05:52:16.696Z,19.48
2022-11-29T05:54:52.357Z,21.02
2022-11-29T05:57:30.389Z,19.83
2022-11-29T06:00:00.148Z,24.30
2022-11-29T06:02:37.140Z,18.57
2022-11-29T06:05:13.291Z,25.35
2022-11-29T06:07:51.876Z,22.90
2022-11-29T06:10:25.052Z,20.10
2022-11-29T06:13:04.512Z,23.33
2022-11-29T06:16:08.938Z,21.00
2022-11-29T06:19:00.105Z,21.58
2022-11-29T06:21:40.195Z,22.85
2022-11-29T06:24:26.141Z,30.63
2022-11-29T06:27:11.986Z,22.48
2022-11-29T06:29:49.210Z,26.00
2022-11-29T06:32:30.650Z,20.52
2022-11-29T06:35:04.126Z,27.83
2022-11-29T06:37:38.628Z,25.95
2022-11-29T06:40:12.308Z,24.93
2022-11-29T06:42:40.509Z,29.10
2022-11-29T06:45:11.621Z,31.08
2022-11-29T06:47:44.608Z,28.63
2022-11-29T06:50:31.188Z,26.40
2022-11-29T06:53:07.800Z,23.77
2022-11-29T06:55:45.343Z,24.75
2022-11-29T06:58:34.442Z,21.42
2022-11-29T07:01:19.175Z,24.30
2022-11-29T07:04:08.473Z,22.45
2022-11-29T07:06:37.228Z,25.88
2022-11-29T07:09:14.364Z,25.45
2022-11-29T07:11:44.923Z,18.83
2022-11-29T07:14:13.602Z,22.58
2022-11-29T07:16:55.834Z,26.40
2022-11-29T07:19:37.090Z,20.50
2022-11-29T07:22:15.735Z,22.60
2022-11-29T07:24:58.601Z,25.88
2022-11-29T07:27:34.542Z,24.75
2022-11-29T07:30:12.504Z,24.67
2022-11-29T07:32:52.880Z,31.05
2022-11-29T07:35:33.893Z,22.80
2022-11-29T07:38:10.863Z,27.48
2022-11-29T07:40:46.764Z,30.30
2022-11-29T07:43:26.792Z,22.20
2022-11-29T07:45:56.159Z,27.98
2022-11-29T07:48:24.572Z,25.40
2022-11-29T07:50:52.803Z,25.40
2022-11-29T07:53:23.061Z,26.88
2022-11-29T07:55:51.973Z,27.50
2022-11-29T07:58:21.978Z,33.47
2022-11-29T08:00:50.337Z,27.73
2022-11-29T08:03:18.566Z,29.57
2022-11-29T08:05:48.334Z,30.77
2022-11-29T08:08:16.799Z,28.58
2022-11-29T08:10:45.037Z,25.10
2022-11-29T08:13:13.297Z,28.98
2022-11-29T08:15:46.872Z,27.30
2022-11-29T08:18:15.655Z,24.30
2022-11-29T08:20:44.338Z,26.33
2022-11-29T08:23:14.318Z,26.50
2022-11-29T08:25:42.616Z,27.65
2022-11-29T08:28:10.869Z,25.50
2022-11-29T08:30:39.529Z,28.58
2022-11-29T08:33:09.172Z,27.60
2022-11-29T08:35:37.369Z,25.23
2022-11-29T08:38:05.660Z,24.10
2022-11-29T08:40:33.943Z,31.95
2022-11-29T08:43:02.178Z,26.00
2022-11-29T08:45:30.509Z,27.83
2022-11-29T08:47:58.847Z,25.23
2022-11-29T08:50:28.461Z,30.08
2022-11-29T08:53:16.353Z,25.75
2022-11-29T08:55:46.562Z,31.40
2022-11-29T08:58:16.976Z,22.25
2022-11-29T09:00:47.165Z,32.78
2022-11-29T09:03:33.349Z,23.05
2022-11-29T09:06:12.238Z,27.88
2022-11-29T09:08:43.583Z,26.13
2022-11-29T09:11:13.935Z,32.53
2022-11-29T09:13:42.932Z,28.35
2022-11-29T09:16:13.718Z,24.38
2022-11-29T09:18:44.869Z,24.08
2022-11-29T09:21:18.640Z,22.58
2022-11-29T09:23:47.229Z,29.55
2022-11-29T09:26:19.412Z,25.40
2022-11-29T09:28:48.040Z,23.23
2022-11-29T09:31:17.655Z,21.40
2022-11-29T09:33:46.647Z,21.58
2022-11-29T09:36:15.551Z,26.30
2022-11-29T09:38:45.123Z,23.00
2022-11-29T09:41:32.351Z,28.58
2022-11-29T09:44:09.887Z,27.30
2022-11-29T09:46:58.621Z,23.35
2022-11-29T09:49:55.015Z,31.70
2022-11-29T09:52:35.055Z,23.65
2022-11-29T09:55:20.501Z,24.77
2022-11-29T09:57:50.465Z,19.85
2022-11-29T10:00:20.957Z,21.73
2022-11-29T10:02:54.211Z,22.33
2022-11-29T10:05:28.471Z,23.75
2022-11-29T10:08:01.484Z,26.75
2022-11-29T10:10:37.718Z,19.73
2022-11-29T10:13:17.025Z,25.40
2022-11-29T10:15:48.539Z,26.05
2022-11-29T10:18:20.493Z,17.43
2022-11-29T10:20:50.892Z,17.88
2022-11-29T10:23:24.647Z,17.30
2022-11-29T10:25:56.104Z,21.48
2022-11-29T10:28:30.538Z,23.58
2022-11-29T10:31:07.310Z,19.65
2022-11-29T10:33:40.592Z,27.15
2022-11-29T10:36:20.900Z,17.83
2022-11-29T10:38:50.379Z,19.67
2022-11-29T10:41:23.803Z,22.30
2022-11-29T10:43:53.063Z,23.97
2022-11-29T10:46:32.254Z,22.77
2022-11-29T10:49:03.829Z,18.27
2022-11-29T10:51:33.141Z,25.40
2022-11-29T10:54:17.072Z,23.85
2022-11-29T10:56:48.636Z,25.40
2022-11-29T10:59:22.630Z,26.75
2022-11-29T11:01:51.739Z,22.58
2022-11-29T11:04:28.917Z,17.15
2022-11-29T11:07:01.093Z,31.05
2022-11-29T11:09:36.133Z,30.83
2022-11-29T11:12:08.960Z,23.67
2022-11-29T11:14:39.391Z,21.85
2022-11-29T11:17:25.870Z,24.33
2022-11-29T11:20:00.864Z,33.03
2022-11-29T11:22:31.321Z,31.77
2022-11-29T11:25:02.373Z,31.88
2022-11-29T11:27:35.061Z,33.15
2022-11-29T11:30:07.193Z,28.50
2022-11-29T11:32:35.543Z,32.47
2022-11-29T11:35:04.211Z,26.30
2022-11-29T11:37:35.687Z,27.80
2022-11-29T11:40:28.967Z,29.58
2022-11-29T11:43:00.306Z,31.67
2022-11-29T11:45:35.010Z,24.87
2022-11-29T11:48:06.780Z,29.92
2022-11-29T11:50:38.688Z,35.65
2022-11-29T11:53:18.432Z,32.42
2022-11-29T11:55:56.565Z,33.45
2022-11-29T11:58:28.146Z,29.05
2022-11-29T12:01:06.189Z,35.58
2022-11-29T12:03:41.088Z,25.77
2022-11-29T12:06:28.133Z,23.75
2022-11-29T12:09:02.286Z,30.27
2022-11-29T12:11:38.492Z,29.00
2022-11-29T12:14:11.123Z,22.83
2022-11-29T12:16:41.614Z,22.05
2022-11-29T12:19:17.888Z,28.02
2022-11-29T12:21:52.557Z,30.38
2022-11-29T12:24:27.498Z,22.38
2022-11-29T12:26:58.518Z,32.90
2022-11-29T12:29:31.065Z,28.60
2022-11-29T12:32:09.108Z,38.63
2022-11-29T12:34:51.788Z,40.97
2022-11-29T12:37:24.705Z,36.83
2022-11-29T12:40:05.190Z,31.35
2022-11-29T12:42:45.632Z,33.63
2022-11-29T12:45:40.373Z,34.63
2022-11-29T12:48:21.355Z,29.88
2022-11-29T12:50:58.822Z,28.92
2022-11-29T12:53:38.099Z,29.73
2022-11-29T12:56:15.675Z,34.08
2022-11-29T12:58:54.440Z,28.80
2022-11-29T13:01:32.243Z,25.40
2022-11-29T13:04:09.274Z,33.75
2022-11-29T13:06:44.615Z,30.33
2022-11-29T13:09:47.424Z,28.13
2022-11-29T13:12:22.212Z,29.20
2022-11-29T13:14:57.337Z,26.00
2022-11-29T13:17:35.359Z,23.80
2022-11-29T13:20:17.967Z,26.95
2022-11-29T13:22:54.722Z,25.27
2022-11-29T13:25:29.274Z,27.13
2022-11-29T13:28:01.758Z,23.25
2022-11-29T13:30:30.025Z,25.38
2022-11-29T13:33:08.454Z,23.05
2022-11-29T13:35:43.212Z,22.50
2022-11-29T13:38:17.880Z,25.97
2022-11-29T13:40:55.580Z,25.35
2022-11-29T13:43:30.703Z,23.58
2022-11-29T13:46:05.572Z,28.23
2022-11-29T13:48:38.333Z,24.23
2022-11-29T13:51:30.962Z,24.48
2022-11-29T13:54:02.250Z,31.08
2022-11-29T13:56:36.622Z,29.52
2022-11-29T13:59:09.943Z,28.85
2022-11-29T14:01:47.390Z,25.50
2022-11-29T14:04:31.291Z,23.10
2022-11-29T14:07:08.752Z,24.70
2022-11-29T14:09:49.426Z,34.17
2022-11-29T14:12:41.761Z,36.60
2022-11-29T14:15:33.867Z,32.20
2022-11-29T14:18:03.457Z,26.38
2022-11-29T14:20:58.188Z,29.35
2022-11-29T14:23:38.249Z,31.00
2022-11-29T14:26:29.178Z,34.17
2022-11-29T14:28:58.510Z,41.60
2022-11-29T14:31:52.473Z,30.88
2022-11-29T14:34:38.961Z,34.47
2022-11-29T14:37:21.313Z,30.52
2022-11-29T14:39:52.275Z,32.95
2022-11-29T14:42:22.624Z,36.90
2022-11-29T14:44:53.743Z,30.20
2022-11-29T14:47:26.059Z,31.80
2022-11-29T14:49:56.710Z,31.10
2022-11-29T14:52:32.757Z,27.10
2022-11-29T14:55:07.317Z,36.83
2022-11-29T14:57:55.677Z,32.88
2022-11-29T15:00:25.802Z,35.90
2022-11-29T15:03:03.004Z,31.20
2022-11-29T15:05:34.534Z,41.10
2022-11-29T15:08:10.548Z,32.08
2022-11-29T15:10:43.220Z,27.92
2022-11-29T15:13:26.428Z,38.40
2022-11-29T15:16:22.325Z,35.03
2022-11-29T15:19:08.223Z,31.77
2022-11-29T15:21:43.719Z,39.63
2022-11-29T15:24:15.190Z,46.28
2022-11-29T15:26:56.493Z,40.10
2022-11-29T15:29:25.401Z,40.13
2022-11-29T15:31:55.633Z,30.10
2022-11-29T15:34:31.298Z,38.42
2022-11-29T15:36:59.816Z,36.92
2022-11-29T15:39:34.727Z,43.65
2022-11-29T15:42:05.575Z,46.40
2022-11-29T15:44:33.919Z,34.72
2022-11-29T15:47:22.023Z,35.20
2022-11-29T15:49:50.555Z,42.28
2022-11-29T15:52:25.732Z,32.00
2022-11-29T15:54:58.066Z,46.75
2022-11-29T15:57:28.720Z,45.45
2022-11-29T15:59:59.366Z,42.55
2022-11-29T16:02:29.505Z,37.90
2022-11-29T16:05:02.407Z,35.00
2022-11-29T16:07:32.436Z,36.92
2022-11-29T16:10:05.641Z,40.17
2022-11-29T16:12:34.082Z,38.47
2022-11-29T16:15:03.558Z,41.47
2022-11-29T16:17:34.970Z,38.50
2022-11-29T16:20:24.314Z,41.53
2022-11-29T16:23:12.500Z,39.47
2022-11-29T16:25:55.532Z,46.08
2022-11-29T16:28:24.699Z,38.42
2022-11-29T16:30:53.336Z,38.13
2022-11-29T16:33:25.654Z,35.35
2022-11-29T16:36:05.344Z,42.38
2022-11-29T16:38:34.312Z,44.03
2022-11-29T16:41:06.908Z,35.10
2022-11-29T16:43:53.357Z,37.67
2022-11-29T16:46:30.648Z,39.78
2022-11-29T16:49:00.872Z,36.15
2022-11-29T16:51:38.743Z,39.70
2022-11-29T16:54:27.698Z,34.03
2022-11-29T16:56:58.228Z,40.50
2022-11-29T16:59:28.543Z,35.93
2022-11-29T17:01:57.864Z,44.97
2022-11-29T17:04:26.355Z,42.13
2022-11-29T17:06:55.932Z,35.58
2022-11-29T17:09:26.781Z,35.97
2022-11-29T17:11:59.648Z,44.53
2022-11-29T17:14:28.898Z,43.05
2022-11-29T17:16:57.355Z,42.33
2022-11-29T17:19:26.219Z,42.63
2022-11-29T17:21:54.631Z,44.40
2022-11-29T17:24:24.140Z,37.03
2022-11-29T17:26:55.810Z,39.88
2022-11-29T17:29:25.637Z,44.92
2022-11-29T17:31:53.915Z,32.92
2022-11-29T17:34:23.080Z,35.78
2022-11-29T17:36:53.243Z,37.42
2022-11-29T17:39:22.682Z,33.38
2022-11-29T17:41:50.895Z,38.25
2022-11-29T17:44:19.179Z,40.20
2022-11-29T17:46:48.839Z,32.78
2022-11-29T17:49:19.974Z,40.95
2022-11-29T17:51:53.079Z,35.65
2022-11-29T17:54:22.245Z,35.00
2022-11-29T17:56:50.991Z,42.00
2022-11-29T17:59:19.547Z,34.90
2022-11-29T18:01:49.277Z,38.50
2022-11-29T18:04:17.654Z,39.95
2022-11-29T18:06:49.663Z,45.28
2022-11-29T18:09:20.360Z,40.25
2022-11-29T18:11:50.442Z,34.35
2022-11-29T18:14:20.845Z,37.38
2022-11-29T18:16:50.774Z,33.60
2022-11-29T18:19:20.890Z,34.80
2022-11-29T18:21:49.693Z,36.22
2022-11-29T18:24:18.540Z,42.37
2022-11-29T18:26:46.862Z,37.97
2022-11-29T18:29:16.144Z,34.57
2022-11-29T18:31:47.599Z,34.37
2022-11-29T18:34:18.431Z,34.95
2022-11-29T18:36:48.713Z,29.27
2022-11-29T18:39:18.580Z,37.10
2022-11-29T18:41:48.307Z,33.58
2022-11-29T18:44:18.927Z,36.33
2022-11-29T18:46:47.297Z,28.63
2022-11-29T18:49:18.628Z,31.17
2022-11-29T18:51:47.994Z,31.80
2022-11-29T18:54:19.243Z,30.27
2022-11-29T18:56:51.879Z,31.60
2022-11-29T18:59:22.317Z,28.85
2022-11-29T19:01:50.784Z,28.60
2022-11-29T19:04:22.404Z,30.52
2022-11-29T19:06:50.717Z,30.83
2022-11-29T19:09:22.141Z,34.70
2022-11-29T19:11:51.891Z,28.53
2022-11-29T19:14:20.721Z,30.52
2022-11-29T19:16:50.762Z,32.50
2022-11-29T19:19:20.432Z,32.45
2022-11-29T19:21:49.144Z,30.40
2022-11-29T19:24:18.531Z,30.73
2022-11-29T19:26:49.697Z,30.17
2022-11-29T19:29:18.429Z,33.45
2022-11-29T19:31:46.757Z,38.65
2022-11-29T19:34:15.278Z,41.15
2022-11-29T19:36:45.876Z,37.03
2022-11-29T19:39:16.225Z,37.88
2022-11-29T19:41:45.554Z,40.20
2022-11-29T19:44:14.109Z,39.75
2022-11-29T19:46:44.320Z,43.05
2022-11-29T19:49:12.868Z,38.75
2022-11-29T19:51:41.094Z,35.47
2022-11-29T19:54:11.929Z,35.50
2022-11-29T19:56:40.620Z,32.47
2022-11-29T19:59:09.358Z,34.97
2022-11-29T20:01:41.806Z,37.53
2022-11-29T20:04:12.116Z,39.47
2022-11-29T20:06:40.761Z,37.97
2022-11-29T20:09:10.960Z,41.00
2022-11-29T20:11:39.307Z,34.67
2022-11-29T20:14:09.253Z,37.25
2022-11-29T20:16:39.191Z,38.50
2022-11-29T20:19:12.401Z,44.17
2022-11-29T20:21:43.627Z,36.22
2022-11-29T20:24:15.273Z,31.50
2022-11-29T20:26:45.023Z,40.45
2022-11-29T20:29:14.945Z,34.13
2022-11-29T20:31:49.440Z,38.80
2022-11-29T20:34:19.626Z,39.40
2022-11-29T20:37:19.770Z,47.10
2022-11-29T20:39:55.655Z,42.70
2022-11-29T20:42:46.500Z,41.95
2022-11-29T20:45:16.358Z,38.10
2022-11-29T20:47:51.246Z,34.85
2022-11-29T20:50:23.491Z,39.70
2022-11-29T20:53:02.648Z,42.42
2022-11-29T20:55:32.458Z,42.88
2022-11-29T20:58:01.718Z,52.43
2022-11-29T21:00:30.051Z,40.40
2022-11-29T21:02:58.201Z,35.30
2022-11-29T21:05:26.543Z,38.63
2022-11-29T21:07:54.848Z,38.23
2022-11-29T21:10:23.209Z,35.53
2022-11-29T21:12:53.435Z,36.35
2022-11-29T21:15:22.633Z,40.37
2022-11-29T21:17:51.357Z,40.20
2022-11-29T21:20:22.442Z,41.58
2022-11-29T21:22:56.721Z,42.92
2022-11-29T21:25:34.881Z,40.15
2022-11-29T21:28:12.074Z,39.27
2022-11-29T21:30:41.083Z,40.38
2022-11-29T21:33:10.622Z,35.95
2022-11-29T21:35:41.095Z,41.17
2022-11-29T21:38:14.462Z,39.10
2022-11-29T21:40:42.675Z,36.70
2022-11-29T21:43:12.283Z,38.70
2022-11-29T21:45:40.516Z,42.17
2022-11-29T21:48:28.805Z,41.45
2022-11-29T21:50:57.626Z,42.97
2022-11-29T21:53:27.990Z,38.65
2022-11-29T21:56:00.035Z,39.35
2022-11-29T21:58:30.742Z,38.20
2022-11-29T22:01:06.343Z,48.60
2022-11-29T22:03:34.615Z,39.53
2022-11-29T22:06:04.459Z,41.42
2022-11-29T22:08:35.637Z,40.10
2022-11-29T22:11:05.306Z,42.40
2022-11-29T22:13:35.752Z,38.15
2022-11-29T22:16:08.697Z,45.37
2022-11-29T22:18:37.315Z,43.50
2022-11-29T22:21:07.445Z,40.40
2022-11-29T22:23:35.747Z,42.65
2022-11-29T22:26:06.269Z,37.13
2022-11-29T22:28:36.638Z,40.93
2022-11-29T22:31:06.398Z,38.57
2022-11-29T22:33:35.171Z,44.88
2022-11-29T22:36:05.449Z,42.78
2022-11-29T22:38:33.869Z,42.33
2022-11-29T22:41:02.603Z,44.67
2022-11-29T22:43:32.107Z,44.08
2022-11-29T22:46:10.036Z,41.22
2022-11-29T22:48:40.032Z,41.53
2022-11-29T22:51:09.966Z,42.47
2022-11-29T22:53:39.778Z,42.47
2022-11-29T22:56:10.211Z,44.97
2022-11-29T22:58:38.644Z,44.00
2022-11-29T23:01:10.640Z,42.67
2022-11-29T23:03:40.784Z,45.90
2022-11-29T23:06:11.415Z,41.33
2022-11-29T23:08:40.454Z,46.45
2022-11-29T23:11:11.456Z,47.90
2022-11-29T23:13:42.012Z,45.30
2022-11-29T23:16:14.403Z,54.50
2022-11-29T23:18:43.352Z,49.95
2022-11-29T23:21:13.856Z,40.83
2022-11-29T23:23:42.688Z,39.60
2022-11-29T23:26:18.512Z,44.83
2022-11-29T23:28:47.017Z,38.75
2022-11-29T23:31:16.809Z,49.47
2022-11-29T23:33:45.412Z,43.55
2022-11-29T23:36:14.368Z,45.35
2022-11-29T23:38:42.771Z,44.07
2022-11-29T23:41:11.688Z,40.88
2022-11-29T23:43:41.661Z,40.50
2022-11-29T23:46:11.929Z,43.03
2022-11-29T23:48:41.646Z,42.78
2022-11-29T23:51:10.663Z,45.23
2022-11-29T23:53:38.976Z,40.70
2022-11-29T23:56:09.339Z,42.95
2022-11-29T23:58:38.024Z,44.95
